createdAt,value
2018-12-01T00:04:38.464Z,55.8
2018-12-01T00:09:34.977Z,55.6
2018-12-01T00:14:32.232Z,55.6
2018-12-01T00:19:29.022Z,55.6
2018-12-01T00:24:25.517Z,56.2
2018-12-01T00:29:21.834Z,56.2
2018-12-01T00:34:18.100Z,56.1
2018-12-01T00:39:14.677Z,56.2
2018-12-01T00:44:11.612Z,56.7
2018-12-01T00:49:08.892Z,56.7
2018-12-01T00:54:05.816Z,56
2018-12-01T00:59:02.835Z,56.1
2018-12-01T01:03:59.459Z,56.7
2018-12-01T01:08:56.451Z,56.9
2018-12-01T01:13:53.251Z,56.6
2018-12-01T01:18:50.216Z,56.5
2018-12-01T01:23:47.089Z,56.8
2018-12-01T01:28:43.910Z,56.8
2018-12-01T01:33:40.715Z,56.7
2018-12-01T01:38:37.563Z,56.8
2018-12-01T01:48:31.066Z,56
2018-12-01T01:53:27.893Z,57
2018-12-01T01:58:24.722Z,56.9
2018-12-01T02:03:21.893Z,56.5
2018-12-01T02:08:18.739Z,56.5
2018-12-01T02:13:15.207Z,56.4
2018-12-01T02:18:11.957Z,56.1
2018-12-01T02:23:08.843Z,56.4
2018-12-01T02:28:05.651Z,56.9
2018-12-01T02:33:02.409Z,56.8
2018-12-01T02:37:59.267Z,56.5
2018-12-01T02:42:56.266Z,56.7
2018-12-01T02:47:53.267Z,57.4
2018-12-01T02:52:49.964Z,57.1
2018-12-01T02:57:47.355Z,57.5
2018-12-01T03:02:44.382Z,57.5
2018-12-01T03:07:41.105Z,57.1
2018-12-01T03:12:37.900Z,57.4
2018-12-01T03:17:34.889Z,57.2
2018-12-01T03:22:31.231Z,57.1
2018-12-01T03:27:27.999Z,57.3
2018-12-01T03:32:24.768Z,57.5
2018-12-01T03:37:21.559Z,56.5
2018-12-01T03:42:18.316Z,56.6
2018-12-01T03:47:15.174Z,57.4
2018-12-01T03:52:11.411Z,57.7
2018-12-01T03:57:08.642Z,57.6
2018-12-01T04:02:05.492Z,57.3
2018-12-01T04:07:02.246Z,57.5
2018-12-01T04:11:59.095Z,57.6
2018-12-01T04:16:55.850Z,57.5
2018-12-01T04:21:52.815Z,57.2
2018-12-01T04:26:49.732Z,57.3
2018-12-01T04:31:46.319Z,57.2
2018-12-01T04:36:43.006Z,57.9
2018-12-01T04:41:39.897Z,57.8
2018-12-01T04:46:36.813Z,58.2
2018-12-01T04:51:33.362Z,57.6
2018-12-01T04:56:29.675Z,57.9
2018-12-01T05:01:26.631Z,58.1
2018-12-01T05:06:23.999Z,58.1
2018-12-01T05:11:20.720Z,57.9
2018-12-01T05:16:17.044Z,58.1
2018-12-01T05:21:13.995Z,57.9
2018-12-01T05:26:09.914Z,57.6
2018-12-01T05:31:06.846Z,57
2018-12-01T05:36:03.671Z,57.2
2018-12-01T05:41:00.140Z,57.1
2018-12-01T05:45:56.797Z,57.4
2018-12-01T05:50:53.071Z,56.3
2018-12-01T05:55:49.527Z,56.9
2018-12-01T06:00:47.060Z,57.1
2018-12-01T06:05:44.230Z,57.3
2018-12-01T06:10:40.931Z,57.2
2018-12-01T06:15:37.765Z,57.3
2018-12-01T06:20:34.935Z,57.6
2018-12-01T06:25:31.874Z,57.9
2018-12-01T06:30:28.683Z,57.1
2018-12-01T06:35:25.119Z,57.2
2018-12-01T06:40:22.333Z,56.7
2018-12-01T06:45:19.090Z,57.3
2018-12-01T06:50:15.615Z,57.3
2018-12-01T06:55:12.666Z,58.3
2018-12-01T07:00:09.716Z,58.3
2018-12-01T07:05:06.656Z,58.1
2018-12-01T07:10:00.145Z,58.1
2018-12-01T07:14:57.193Z,58.7
2018-12-01T07:19:53.904Z,58.8
2018-12-01T07:24:51.295Z,58.3
2018-12-01T07:29:48.203Z,58.3
2018-12-01T07:34:45.128Z,58.3
2018-12-01T07:39:42.069Z,58.2
2018-12-01T07:44:38.969Z,58.2
2018-12-01T07:49:35.934Z,57.7
2018-12-01T07:54:33.037Z,57.5
2018-12-01T07:59:30.077Z,57.8
2018-12-01T08:04:26.962Z,58
2018-12-01T08:09:23.914Z,57.9
2018-12-01T08:14:20.853Z,57.4
2018-12-01T08:19:17.845Z,58
2018-12-01T08:24:14.734Z,57.7
2018-12-01T08:29:11.517Z,57.7
2018-12-01T08:34:08.447Z,57.8
2018-12-01T08:39:05.410Z,57.4
2018-12-01T08:44:02.382Z,57.9
2018-12-01T08:48:59.106Z,57.6
2018-12-01T08:53:55.878Z,57
2018-12-01T08:58:52.871Z,57.3
2018-12-01T09:03:49.446Z,57.3
2018-12-01T09:08:46.167Z,57
2018-12-01T09:13:42.947Z,57.2
2018-12-01T09:18:40.054Z,56.5
2018-12-01T09:23:36.985Z,56.9
2018-12-01T09:28:34.065Z,57
2018-12-01T09:33:30.840Z,57
2018-12-01T09:38:27.706Z,56.8
2018-12-01T09:43:24.789Z,56.5
2018-12-01T09:48:21.770Z,56
2018-12-01T09:53:18.800Z,56.8
2018-12-01T09:58:16.090Z,56.1
2018-12-01T10:03:14.077Z,55.6
2018-12-01T10:08:11.863Z,55.2
2018-12-01T10:13:09.858Z,54.8
2018-12-01T10:18:07.836Z,54.3
2018-12-01T10:23:05.165Z,54.7
2018-12-01T10:28:02.208Z,54.6
2018-12-01T10:32:59.351Z,53.9
2018-12-01T10:37:56.319Z,54
2018-12-01T10:42:53.400Z,54.2
2018-12-01T10:47:50.503Z,53.9
2018-12-01T10:52:47.881Z,54.1
2018-12-01T10:57:44.577Z,53.9
2018-12-01T11:02:41.629Z,53.9
2018-12-01T11:07:38.354Z,54.2
2018-12-01T11:12:35.190Z,53.7
2018-12-01T11:17:32.257Z,54.3
2018-12-01T11:22:29.321Z,54.4
2018-12-01T11:27:26.345Z,54.9
2018-12-01T11:32:23.299Z,55
2018-12-01T11:37:19.926Z,54.6
2018-12-01T11:42:17.044Z,54
2018-12-01T11:47:14.083Z,54.1
2018-12-01T11:52:11.965Z,54.6
2018-12-01T11:57:09.722Z,54.7
2018-12-01T12:02:06.681Z,54.2
2018-12-01T12:07:03.822Z,54.1
2018-12-01T12:12:01.050Z,53.8
2018-12-01T12:16:57.760Z,54
2018-12-01T12:21:55.227Z,54.5
2018-12-01T12:26:52.035Z,54.2
2018-12-01T12:31:48.335Z,54.6
2018-12-01T12:36:45.372Z,54.7
2018-12-01T12:41:42.409Z,55.1
2018-12-01T12:46:38.626Z,55.3
2018-12-01T12:51:35.882Z,55.2
2018-12-01T12:56:32.680Z,55.2
2018-12-01T13:01:29.752Z,55.1
2018-12-01T13:06:25.202Z,55.2
2018-12-01T13:11:22.142Z,55
2018-12-01T13:16:19.199Z,55.3
2018-12-01T13:21:15.971Z,55.2
2018-12-01T13:26:13.107Z,55.3
2018-12-01T13:31:10.015Z,55.3
2018-12-01T13:36:06.810Z,55.5
2018-12-01T13:41:03.690Z,55.7
2018-12-01T13:46:00.456Z,55.9
2018-12-01T13:50:57.230Z,56.2
2018-12-01T13:55:53.779Z,56.2
2018-12-01T14:00:50.444Z,56.1
2018-12-01T14:05:47.182Z,56.1
2018-12-01T14:10:44.301Z,56.6
2018-12-01T14:15:41.847Z,56.3
2018-12-01T14:20:38.610Z,56.6
2018-12-01T14:25:35.295Z,56.8
2018-12-01T14:30:32.255Z,56.9
2018-12-01T14:35:29.169Z,57.4
2018-12-01T14:40:26.228Z,57
2018-12-01T14:45:22.890Z,56.8
2018-12-01T14:50:19.048Z,56.7
2018-12-01T14:55:16.277Z,56.6
2018-12-01T15:00:13.275Z,56.6
2018-12-01T15:05:12.768Z,57
2018-12-01T15:10:08.813Z,56.8
2018-12-01T15:15:05.383Z,56.9
2018-12-01T15:20:02.408Z,57.3
2018-12-01T15:24:59.196Z,57.6
2018-12-01T15:29:55.995Z,57.5
2018-12-01T15:34:52.980Z,58
2018-12-01T15:39:49.925Z,57.3
2018-12-01T15:44:46.723Z,57.7
2018-12-01T15:49:43.866Z,58.1
2018-12-01T15:54:40.815Z,57.6
2018-12-01T15:59:37.666Z,57.6
2018-12-01T16:04:34.147Z,57.8
2018-12-01T16:09:30.908Z,58.2
2018-12-01T16:14:27.844Z,58.3
2018-12-01T16:19:25.380Z,58.7
2018-12-01T16:24:22.147Z,58.7
2018-12-01T16:29:19.274Z,59.1
2018-12-01T16:34:15.413Z,58.6
2018-12-01T16:39:12.488Z,59.1
2018-12-01T16:44:09.125Z,59.8
2018-12-01T16:49:05.703Z,59.8
2018-12-01T16:54:02.760Z,59.6
2018-12-01T16:58:59.618Z,59.9
2018-12-01T17:03:56.512Z,59.9
2018-12-01T17:08:53.427Z,60.3
2018-12-01T17:13:50.741Z,59.5
2018-12-01T17:18:47.460Z,59.7
2018-12-01T17:23:44.623Z,60.6
2018-12-01T17:28:41.950Z,60
2018-12-01T17:33:39.273Z,59.7
2018-12-01T17:38:36.247Z,60.1
2018-12-01T17:43:33.332Z,59.9
2018-12-01T17:48:30.161Z,59.7
2018-12-01T17:53:27.146Z,59.5
2018-12-01T17:58:24.114Z,59.9
2018-12-01T18:03:21.253Z,59.8
2018-12-01T18:08:18.202Z,60.3
2018-12-01T18:13:14.940Z,60.3
2018-12-01T18:18:11.899Z,59.8
2018-12-01T18:23:09.118Z,60.2
2018-12-01T18:28:06.120Z,60.2
2018-12-01T18:33:03.156Z,59.9
2018-12-01T18:37:59.757Z,59.7
2018-12-01T18:42:56.455Z,60
2018-12-01T18:47:53.386Z,59.7
2018-12-01T18:52:50.188Z,59.9
2018-12-01T18:57:47.449Z,59.9
2018-12-01T19:02:44.102Z,59.6
2018-12-01T19:07:41.610Z,59.6
2018-12-01T19:12:38.274Z,58.7
2018-12-01T19:17:35.196Z,58.8
2018-12-01T19:22:32.093Z,58.8
2018-12-01T19:27:28.984Z,59.2
2018-12-01T19:32:25.199Z,59.1
2018-12-01T19:37:22.239Z,59.3
2018-12-01T19:42:18.737Z,59.3
2018-12-01T19:47:15.674Z,59.9
2018-12-01T19:52:12.401Z,59.8
2018-12-01T19:57:09.184Z,60.2
2018-12-01T20:02:06.250Z,60.6
2018-12-01T20:07:03.394Z,60.2
2018-12-01T20:11:59.939Z,60.8
2018-12-01T20:16:56.863Z,60.9
2018-12-01T20:21:53.793Z,60.6
2018-12-01T20:26:50.890Z,60.9
2018-12-01T20:31:47.669Z,60.7
2018-12-01T20:36:44.341Z,60.9
2018-12-01T20:41:41.024Z,61.1
2018-12-01T20:46:37.936Z,61.1
2018-12-01T20:51:34.694Z,60.6
2018-12-01T20:56:32.682Z,60.8
2018-12-01T21:01:29.277Z,60.5
2018-12-01T21:06:26.090Z,60.6
2018-12-01T21:11:22.711Z,60.6
2018-12-01T21:16:19.684Z,60.4
2018-12-01T21:21:16.567Z,60.4
2018-12-01T21:26:13.712Z,60.8
2018-12-01T21:31:10.288Z,60.4
2018-12-01T21:36:07.858Z,60.2
2018-12-01T21:41:04.483Z,60.2
2018-12-01T21:46:01.254Z,60.4
2018-12-01T21:50:57.836Z,60.7
2018-12-01T21:55:54.918Z,60.3
2018-12-01T22:00:52.263Z,60.3
2018-12-01T22:05:49.197Z,60.2
2018-12-01T22:10:45.896Z,60.1
2018-12-01T22:15:42.741Z,60
2018-12-01T22:20:39.933Z,60.3
2018-12-01T22:25:36.753Z,60.7
2018-12-01T22:30:33.517Z,60.6
2018-12-01T22:35:30.968Z,61.4
2018-12-01T22:40:27.591Z,61.4
2018-12-01T22:45:23.953Z,61.6
2018-12-01T22:50:19.688Z,61.2
2018-12-01T22:55:16.731Z,60.9
2018-12-01T23:00:13.885Z,60.8
2018-12-01T23:05:11.132Z,60.7
2018-12-01T23:10:08.074Z,61
2018-12-01T23:15:04.831Z,61.5
2018-12-01T23:20:01.687Z,61.1
2018-12-01T23:24:58.435Z,61.6
2018-12-01T23:29:55.236Z,61.6
2018-12-01T23:34:53.273Z,61.5
2018-12-01T23:39:49.054Z,60.8
2018-12-01T23:44:45.921Z,61
2018-12-01T23:49:42.845Z,60.9
2018-12-01T23:54:40.043Z,61.2
2018-12-01T23:59:37.208Z,61.5
